This is the latest recevied weather packets stored in our database for station/object SP3SWJ-13. If no packets are shown the sender has not sent any weather packets the latest 10 day(s).
| Time | Temp. | Humidity | Pressure | Rain* | Wind** | Luminosity | Snow |
|---|---|---|---|---|---|---|---|
| 1777714588 | 22.78° C | 31% | 1014.3 hPa | - | - | 663 W/m² | - |
| 1777714287 | 23.33° C | 30% | 1014.3 hPa | - | - | 661 W/m² | - |
| 1777713987 | 23.89° C | 29% | 1014.2 hPa | - | - | 655 W/m² | - |
| 1777713685 | 23.33° C | 33% | 1014.4 hPa | - | - | 659 W/m² | - |
| 1777713384 | 23.33° C | 33% | 1014.4 hPa | - | - | 648 W/m² | - |
| 1777713083 | 23.89° C | 31% | 1014.4 hPa | - | - | 639 W/m² | - |
| 1777712783 | 23.33° C | 32% | 1014.5 hPa | - | - | 621 W/m² | - |
| 1777712481 | 23.89° C | 32% | 1014.5 hPa | - | - | 622 W/m² | - |
| 1777712180 | 22.78° C | 34% | 1014.5 hPa | - | - | 613 W/m² | - |
| 1777711879 | 22.22° C | 35% | 1014.5 hPa | - | - | 598 W/m² | - |
| 1777711578 | 22.78° C | 36% | 1014.6 hPa | - | - | 585 W/m² | - |
| 1777711278 | 23.33° C | 35% | 1014.6 hPa | - | - | 592 W/m² | - |
| 1777710976 | 22.78° C | 34% | 1014.7 hPa | - | - | 574 W/m² | - |
| 1777710675 | 22.22° C | 35% | 1014.7 hPa | - | - | 565 W/m² | - |
| 1777710375 | 22.78° C | 36% | 1014.8 hPa | - | - | 554 W/m² | - |
| 1777710074 | 22.22° C | 34% | 1014.7 hPa | - | - | 543 W/m² | - |
| 1777709773 | 21.67° C | 38% | 1014.7 hPa | - | - | 530 W/m² | - |
| 1777709472 | 21.67° C | 39% | 1014.7 hPa | - | - | 517 W/m² | - |
| 1777709171 | 22.78° C | 38% | 1014.8 hPa | - | - | 509 W/m² | - |
| 1777708870 | 22.22° C | 37% | 1014.8 hPa | - | - | 502 W/m² | - |
| 1777708569 | 22.22° C | 37% | 1014.7 hPa | - | - | 493 W/m² | - |
| 1777708269 | 21.67° C | 40% | 1014.8 hPa | - | - | 478 W/m² | - |
| 1777707968 | 22.22° C | 37% | 1014.8 hPa | - | - | 463 W/m² | - |
| 1777707366 | 21.11° C | 39% | 1014.8 hPa | - | - | 435 W/m² | - |
| 1777707065 | 20.56° C | 42% | 1014.8 hPa | - | - | 423 W/m² | - |
* Rain since midnight (hover to see other rain measurements)
** Current wind speed in m/s (hover to see current wind gust speed)